createdAt,value
2023-03-31T00:01:28.609Z,99781.69
2023-03-31T00:04:04.946Z,99782.66
2023-03-31T00:06:38.032Z,99782.66
2023-03-31T00:09:08.932Z,99785.84
2023-03-31T00:11:40.935Z,99781.16
2023-03-31T00:14:10.652Z,99721.50
2023-03-31T00:16:40.614Z,99780.00
2023-03-31T00:19:18.043Z,99766.66
2023-03-31T00:21:47.743Z,99763.78
2023-03-31T00:24:17.353Z,99749.03
2023-03-31T00:26:47.298Z,99761.75
2023-03-31T00:29:16.138Z,99765.25
2023-03-31T00:31:44.718Z,99743.72
2023-03-31T00:34:13.556Z,99753.84
2023-03-31T00:36:47.267Z,99751.19
2023-03-31T00:39:19.050Z,99726.09
2023-03-31T00:41:49.221Z,99752.97
2023-03-31T00:44:22.880Z,99672.63
2023-03-31T00:46:56.482Z,99741.66
2023-03-31T00:49:34.483Z,99745.88
2023-03-31T00:52:08.082Z,99751.97
2023-03-31T00:54:39.235Z,99697.53
2023-03-31T00:57:11.437Z,99745.88
2023-03-31T00:59:44.583Z,99746.19
2023-03-31T01:02:17.335Z,99747.25
2023-03-31T01:04:54.742Z,99734.00
2023-03-31T01:07:31.046Z,99732.13
2023-03-31T01:10:05.164Z,99695.84
2023-03-31T01:12:39.414Z,99732.84
2023-03-31T01:15:09.797Z,99731.94
2023-03-31T01:17:39.272Z,99663.47
2023-03-31T01:20:19.234Z,99723.84
2023-03-31T01:23:41.257Z,99718.41
2023-03-31T01:26:44.379Z,99712.19
2023-03-31T01:29:42.001Z,99710.34
2023-03-31T01:33:01.573Z,99697.94
2023-03-31T01:36:19.980Z,99707.53
2023-03-31T01:39:56.359Z,99698.88
2023-03-31T01:42:38.611Z,99695.19
2023-03-31T01:45:24.172Z,99697.81
2023-03-31T01:47:59.234Z,99593.47
2023-03-31T01:50:34.455Z,99696.50
2023-03-31T01:53:14.012Z,99685.94
2023-03-31T01:55:51.964Z,99686.78
2023-03-31T01:58:25.561Z,99679.69
2023-03-31T02:01:03.772Z,99661.16
2023-03-31T02:03:38.489Z,99582.63
2023-03-31T02:06:15.456Z,99487.63
2023-03-31T02:08:50.712Z,99654.09
2023-03-31T02:11:21.746Z,99647.88
2023-03-31T02:13:54.276Z,99526.19
2023-03-31T02:16:47.797Z,99647.16
2023-03-31T02:19:19.855Z,99596.28
2023-03-31T02:21:51.005Z,99600.44
2023-03-31T02:24:26.687Z,99638.50
2023-03-31T02:27:06.410Z,99642.91
2023-03-31T02:29:36.108Z,99604.19
2023-03-31T02:32:13.751Z,99648.22
2023-03-31T02:34:42.687Z,99638.44
2023-03-31T02:37:12.759Z,99633.19
2023-03-31T02:39:44.430Z,99627.97
2023-03-31T02:42:15.358Z,99625.31
2023-03-31T02:44:44.734Z,99626.09
2023-03-31T02:47:18.181Z,99595.06
2023-03-31T02:49:52.089Z,99616.41
2023-03-31T02:52:57.917Z,99606.75
2023-03-31T02:55:53.473Z,99600.53
2023-03-31T02:59:04.044Z,99598.81
2023-03-31T03:01:50.312Z,99602.38
2023-03-31T03:04:39.211Z,99573.13
2023-03-31T03:07:18.781Z,99593.13
2023-03-31T03:10:03.627Z,99593.41
2023-03-31T03:12:46.277Z,99564.19
2023-03-31T03:15:24.763Z,99568.09
2023-03-31T03:17:54.855Z,99590.19
2023-03-31T03:20:24.371Z,99575.75
2023-03-31T03:22:53.092Z,99578.28
2023-03-31T03:25:22.116Z,99575.38
2023-03-31T03:27:53.070Z,99571.69
2023-03-31T03:30:23.606Z,99568.91
2023-03-31T03:32:52.495Z,99572.19
2023-03-31T03:35:21.221Z,99571.09
2023-03-31T03:37:49.930Z,99568.31
2023-03-31T03:40:18.820Z,99567.31
2023-03-31T03:42:47.609Z,99574.22
2023-03-31T03:45:16.491Z,99564.47
2023-03-31T03:47:46.763Z,99560.97
2023-03-31T03:50:16.575Z,99556.53
2023-03-31T03:52:45.776Z,99564.47
2023-03-31T03:55:14.595Z,99562.69
2023-03-31T03:57:43.310Z,99559.09
2023-03-31T04:00:13.338Z,99553.88
2023-03-31T04:02:45.877Z,99550.38
2023-03-31T04:05:14.657Z,99541.53
2023-03-31T04:07:43.585Z,99544.09
2023-03-31T04:10:12.665Z,99543.19
2023-03-31T04:12:41.413Z,99531.72
2023-03-31T04:15:11.210Z,99530.81
2023-03-31T04:17:39.648Z,99528.13
2023-03-31T04:20:13.581Z,99501.34
2023-03-31T04:22:42.359Z,99526.34
2023-03-31T04:25:16.459Z,99507.22
2023-03-31T04:27:46.948Z,99517.50
2023-03-31T04:30:22.787Z,99526.16
2023-03-31T04:32:53.437Z,99513.81
2023-03-31T04:35:25.664Z,99508.59
2023-03-31T04:37:59.011Z,99465.41
2023-03-31T04:40:28.432Z,99508.34
2023-03-31T04:42:57.160Z,99503.06
2023-03-31T04:45:25.932Z,99504.91
2023-03-31T04:47:54.888Z,99502.19
2023-03-31T04:50:25.155Z,99495.03
2023-03-31T04:52:53.984Z,99496.66
2023-03-31T04:55:22.740Z,99425.78
2023-03-31T04:57:51.635Z,99488.63
2023-03-31T05:00:22.172Z,99483.28
2023-03-31T05:02:51.647Z,99484.94
2023-03-31T05:05:21.539Z,99471.66
2023-03-31T05:07:51.851Z,99469.81
2023-03-31T05:10:20.953Z,99469.75
2023-03-31T05:12:50.105Z,99468.78
2023-03-31T05:15:19.062Z,99467.69
2023-03-31T05:17:48.101Z,99461.41
2023-03-31T05:20:16.637Z,99460.41
2023-03-31T05:22:45.632Z,99453.28
2023-03-31T05:25:18.656Z,99449.59
2023-03-31T05:27:48.321Z,99447.63
2023-03-31T05:30:18.699Z,99435.91
2023-03-31T05:32:47.542Z,99442.38
2023-03-31T05:35:16.250Z,99430.34
2023-03-31T05:37:45.137Z,99433.16
2023-03-31T05:40:15.460Z,99438.75
2023-03-31T05:42:44.611Z,99423.94
2023-03-31T05:45:13.847Z,99428.41
2023-03-31T05:48:06.587Z,99416.09
2023-03-31T05:50:35.510Z,99425.84
2023-03-31T05:53:04.342Z,99421.91
2023-03-31T05:55:36.716Z,99389.25
2023-03-31T05:58:06.827Z,99412.25
2023-03-31T06:00:36.250Z,99406.88
2023-03-31T06:03:08.871Z,99406.22
2023-03-31T06:05:37.677Z,99401.66
2023-03-31T06:08:07.625Z,99400.41
2023-03-31T06:10:41.571Z,99393.72
2023-03-31T06:13:10.309Z,99390.34
2023-03-31T06:15:39.071Z,99394.13
2023-03-31T06:18:10.785Z,99384.66
2023-03-31T06:20:39.622Z,99380.63
2023-03-31T06:23:08.319Z,99377.63
2023-03-31T06:25:50.932Z,99365.09
2023-03-31T06:28:20.301Z,99368.66
2023-03-31T06:30:49.361Z,99356.09
2023-03-31T06:33:18.085Z,99364.09
2023-03-31T06:35:46.901Z,99368.38
2023-03-31T06:38:15.682Z,99363.84
2023-03-31T06:40:45.576Z,99364.53
2023-03-31T06:43:14.675Z,99359.16
2023-03-31T06:45:43.594Z,99354.69
2023-03-31T06:48:12.526Z,99356.31
2023-03-31T06:50:42.404Z,99357.72
2023-03-31T06:53:12.315Z,99359.31
2023-03-31T06:55:41.307Z,99339.16
2023-03-31T06:58:11.933Z,99355.03
2023-03-31T07:00:41.119Z,99361.41
2023-03-31T07:03:10.046Z,99362.19
2023-03-31T07:05:38.580Z,99343.16
2023-03-31T07:08:07.420Z,99359.47
2023-03-31T07:10:36.562Z,99359.03
2023-03-31T07:13:05.776Z,99366.41
2023-03-31T07:15:36.155Z,99363.63
2023-03-31T07:18:04.860Z,99343.19
2023-03-31T07:20:34.302Z,99355.53
2023-03-31T07:23:07.013Z,99350.88
2023-03-31T07:25:36.076Z,99357.66
2023-03-31T07:28:06.949Z,99347.44
2023-03-31T07:30:37.044Z,99348.44
2023-03-31T07:33:07.621Z,99346.72
2023-03-31T07:35:40.134Z,99322.56
2023-03-31T07:38:10.426Z,99343.53
2023-03-31T07:40:39.910Z,99338.09
2023-03-31T07:43:08.949Z,99347.91
2023-03-31T07:45:41.704Z,99344.56
2023-03-31T07:48:10.488Z,99339.16
2023-03-31T07:50:39.024Z,99309.16
2023-03-31T07:53:16.983Z,99337.34
2023-03-31T07:55:45.416Z,99337.06
2023-03-31T07:58:14.128Z,99329.44
2023-03-31T08:00:44.034Z,99328.88
2023-03-31T08:03:12.792Z,99321.81
2023-03-31T08:05:41.514Z,99326.81
2023-03-31T08:08:10.240Z,99327.06
2023-03-31T08:10:40.676Z,99319.44
2023-03-31T08:13:09.406Z,99330.31
2023-03-31T08:15:38.257Z,99318.38
2023-03-31T08:18:08.256Z,99316.47
2023-03-31T08:20:39.380Z,99296.91
2023-03-31T08:23:11.412Z,99277.84
2023-03-31T08:25:40.188Z,99310.13
2023-03-31T08:28:10.870Z,99312.06
2023-03-31T08:30:39.797Z,99247.13
2023-03-31T08:33:12.307Z,99291.31
2023-03-31T08:35:40.835Z,99294.84
2023-03-31T08:38:09.612Z,99290.97
2023-03-31T08:40:42.788Z,99254.63
2023-03-31T08:43:21.927Z,99256.75
2023-03-31T08:45:52.251Z,99289.31
2023-03-31T08:48:30.174Z,99257.13
2023-03-31T08:51:07.205Z,99266.41
2023-03-31T08:53:42.223Z,99261.00
2023-03-31T08:56:20.156Z,99271.50
2023-03-31T08:58:51.965Z,99275.09
2023-03-31T09:01:44.115Z,99267.75
2023-03-31T09:04:51.747Z,99267.31
2023-03-31T09:07:36.153Z,99238.63
2023-03-31T09:10:28.453Z,99256.81
2023-03-31T09:13:06.888Z,99260.69
2023-03-31T09:15:44.023Z,99245.25
2023-03-31T09:18:30.476Z,99253.66
2023-03-31T09:21:13.593Z,99253.84
2023-03-31T09:23:50.039Z,99241.88
2023-03-31T09:26:39.258Z,99253.81
2023-03-31T09:29:18.743Z,99251.28
2023-03-31T09:31:48.473Z,99249.06
2023-03-31T09:34:25.517Z,99243.78
2023-03-31T09:36:55.329Z,99245.44
2023-03-31T09:39:23.961Z,99220.44
2023-03-31T09:41:55.841Z,99223.88
2023-03-31T09:44:31.070Z,99202.91
2023-03-31T09:47:03.604Z,99207.22
2023-03-31T09:49:37.036Z,99208.16
2023-03-31T09:52:16.122Z,99202.81
2023-03-31T09:54:52.248Z,99122.44
2023-03-31T09:57:31.298Z,99201.00
2023-03-31T10:00:16.433Z,99186.63
2023-03-31T10:02:50.793Z,99148.63
2023-03-31T10:05:32.348Z,99132.84
2023-03-31T10:08:26.346Z,99172.88
2023-03-31T10:10:57.567Z,99125.56
2023-03-31T10:13:29.813Z,99159.66
2023-03-31T10:16:08.460Z,99156.97
2023-03-31T10:18:39.313Z,99156.09
2023-03-31T10:21:21.168Z,99105.16
2023-03-31T10:23:52.225Z,99143.09
2023-03-31T10:26:25.038Z,99106.28
2023-03-31T10:28:56.558Z,99134.66
2023-03-31T10:31:35.218Z,99126.88
2023-03-31T10:34:08.627Z,99103.22
2023-03-31T10:36:37.528Z,99120.84
2023-03-31T10:39:10.304Z,99060.91
2023-03-31T10:41:41.167Z,99120.13
2023-03-31T10:44:33.757Z,99114.94
2023-03-31T10:47:17.894Z,99102.84
2023-03-31T10:49:50.930Z,99095.00
2023-03-31T10:52:22.876Z,99056.88
2023-03-31T10:54:59.331Z,99086.03
2023-03-31T10:57:57.959Z,99032.91
2023-03-31T11:00:34.029Z,99008.84
2023-03-31T11:03:43.719Z,99073.56
2023-03-31T11:06:22.203Z,99072.34
2023-03-31T11:09:07.585Z,99027.81
2023-03-31T11:11:59.500Z,99033.69
2023-03-31T11:14:49.024Z,99073.41
2023-03-31T11:17:37.137Z,99068.75
2023-03-31T11:20:29.651Z,99062.09
2023-03-31T11:23:16.599Z,99024.50
2023-03-31T11:25:55.898Z,99053.50
2023-03-31T11:28:51.576Z,99050.09
2023-03-31T11:31:38.749Z,99015.50
2023-03-31T11:34:40.300Z,99038.75
2023-03-31T11:37:41.534Z,99033.44
2023-03-31T11:40:24.331Z,99025.91
2023-03-31T11:42:58.597Z,99026.31
2023-03-31T11:45:37.196Z,99025.03
2023-03-31T11:48:13.945Z,99004.81
2023-03-31T11:50:46.720Z,98984.75
2023-03-31T11:53:21.209Z,98956.66
2023-03-31T11:55:57.941Z,99007.00
2023-03-31T11:58:36.959Z,99004.84
2023-03-31T12:01:16.609Z,98983.50
2023-03-31T12:03:58.395Z,98963.06
2023-03-31T12:06:35.853Z,98984.13
2023-03-31T12:09:17.455Z,98870.84
2023-03-31T12:11:57.648Z,98951.84
2023-03-31T12:14:35.934Z,98971.38
2023-03-31T12:17:14.755Z,98933.38
2023-03-31T12:19:52.230Z,98968.19
2023-03-31T12:22:31.150Z,98962.75
2023-03-31T12:25:01.088Z,98956.88
2023-03-31T12:27:38.424Z,98950.91
2023-03-31T12:30:15.874Z,98952.84
2023-03-31T12:32:53.452Z,98930.81
2023-03-31T12:35:27.635Z,98947.13
2023-03-31T12:38:20.566Z,98938.25
2023-03-31T12:41:07.643Z,98912.00
2023-03-31T12:44:21.513Z,98936.75
2023-03-31T12:47:33.489Z,98932.66
2023-03-31T12:50:38.666Z,98918.19
2023-03-31T12:53:20.845Z,98913.25
2023-03-31T12:55:54.426Z,98878.38
2023-03-31T12:58:46.172Z,98915.16
2023-03-31T13:01:25.539Z,98914.69
2023-03-31T13:04:10.305Z,98910.59
2023-03-31T13:07:01.601Z,98896.50
2023-03-31T13:09:54.034Z,98853.16
2023-03-31T13:12:31.245Z,98885.88
2023-03-31T13:15:00.595Z,98890.19
2023-03-31T13:17:35.675Z,98882.31
2023-03-31T13:20:36.067Z,98885.59
2023-03-31T13:23:19.591Z,98881.28
2023-03-31T13:25:51.777Z,98880.34
2023-03-31T13:28:33.666Z,98884.94
2023-03-31T13:31:03.903Z,98868.97
2023-03-31T13:33:57.566Z,98881.66
2023-03-31T13:37:11.627Z,98871.94
2023-03-31T13:40:08.279Z,98863.84
2023-03-31T13:43:06.262Z,98812.53
2023-03-31T13:46:00.769Z,98863.28
2023-03-31T13:48:46.552Z,98836.59
2023-03-31T13:51:32.640Z,98854.41
2023-03-31T13:54:52.105Z,98848.94
2023-03-31T13:58:03.240Z,98847.63
2023-03-31T14:00:52.307Z,98836.91
2023-03-31T14:03:38.681Z,98843.56
2023-03-31T14:06:20.352Z,98841.91
2023-03-31T14:08:53.975Z,98829.94
2023-03-31T14:11:28.381Z,98839.22
2023-03-31T14:14:13.654Z,98833.31
2023-03-31T14:16:47.800Z,98806.63
2023-03-31T14:19:59.198Z,98829.94
2023-03-31T14:22:47.355Z,98829.69
2023-03-31T14:25:33.524Z,98833.84
2023-03-31T14:28:20.478Z,98825.41
2023-03-31T14:31:05.086Z,98826.56
2023-03-31T14:33:49.178Z,98827.63
2023-03-31T14:36:29.455Z,98748.28
2023-03-31T14:39:06.097Z,98823.84
2023-03-31T14:41:37.939Z,98821.63
2023-03-31T14:44:08.920Z,98798.13
2023-03-31T14:46:40.650Z,98767.72
2023-03-31T14:49:21.641Z,98813.91
2023-03-31T14:51:53.377Z,98810.13
2023-03-31T14:54:22.692Z,98802.50
2023-03-31T14:56:56.490Z,98803.25
2023-03-31T14:59:30.114Z,98753.66
2023-03-31T15:02:03.184Z,98796.00
2023-03-31T15:07:27.597Z,98791.22
2023-03-31T15:09:57.060Z,98788.91
2023-03-31T15:12:26.944Z,98783.59
2023-03-31T15:15:05.127Z,98762.91
2023-03-31T15:17:42.469Z,98782.84
2023-03-31T15:20:35.158Z,98780.66
2023-03-31T15:23:21.262Z,98727.28
2023-03-31T15:25:50.475Z,98774.28
2023-03-31T15:28:19.932Z,98692.63
2023-03-31T15:31:03.471Z,98767.91
2023-03-31T15:33:42.534Z,98529.66
2023-03-31T15:36:14.326Z,98525.81
2023-03-31T15:38:44.810Z,98765.16
2023-03-31T15:41:16.806Z,98776.06
2023-03-31T15:43:53.371Z,98773.84
2023-03-31T15:46:59.235Z,98769.31
2023-03-31T15:49:33.064Z,98771.63
2023-03-31T15:52:03.305Z,98774.28
2023-03-31T15:54:38.249Z,98597.63
2023-03-31T15:57:09.886Z,98637.13
2023-03-31T15:59:55.410Z,98752.28
2023-03-31T16:02:31.892Z,98766.28
2023-03-31T16:05:06.191Z,98726.78
2023-03-31T16:07:44.602Z,98765.44
2023-03-31T16:10:23.204Z,98772.16
2023-03-31T16:12:57.074Z,98760.13
2023-03-31T16:15:36.164Z,98751.16
2023-03-31T16:18:12.130Z,98772.25
2023-03-31T16:20:51.305Z,98770.81
2023-03-31T16:23:24.567Z,98749.78
2023-03-31T16:25:54.342Z,98768.06
2023-03-31T16:28:27.784Z,98601.22
2023-03-31T16:30:58.821Z,98764.66
2023-03-31T16:33:27.698Z,98755.63
2023-03-31T16:35:59.102Z,98754.31
2023-03-31T16:38:30.577Z,98747.56
2023-03-31T16:41:00.831Z,98748.69
2023-03-31T16:43:31.738Z,98741.75
2023-03-31T16:46:03.481Z,98741.91
2023-03-31T16:48:35.737Z,98689.81
2023-03-31T16:51:05.892Z,98751.91
2023-03-31T16:53:37.145Z,98747.00
2023-03-31T16:56:08.459Z,98738.75
2023-03-31T16:58:37.966Z,98659.03
2023-03-31T17:01:08.033Z,98748.84
2023-03-31T17:03:38.567Z,98730.69
2023-03-31T17:06:11.755Z,98714.66
2023-03-31T17:08:40.791Z,98753.88
2023-03-31T17:11:13.280Z,98758.78
2023-03-31T17:13:43.734Z,98753.91
2023-03-31T17:19:02.475Z,98754.81
2023-03-31T17:21:32.662Z,98700.88
2023-03-31T17:24:04.284Z,98758.72
2023-03-31T17:26:33.309Z,98762.22
2023-03-31T17:29:02.132Z,98761.44
2023-03-31T17:31:32.062Z,98723.72
2023-03-31T17:34:01.578Z,98754.75
2023-03-31T17:36:31.551Z,98744.44
2023-03-31T17:39:00.617Z,98768.06
2023-03-31T17:41:30.516Z,98747.69
2023-03-31T17:43:59.266Z,98751.03
2023-03-31T17:46:28.421Z,98760.91
2023-03-31T17:48:58.492Z,98769.63
2023-03-31T17:51:27.869Z,98771.25
2023-03-31T17:53:57.684Z,98743.47
2023-03-31T17:56:28.621Z,98770.97
2023-03-31T17:58:57.817Z,98778.03
2023-03-31T18:01:27.256Z,98782.47
2023-03-31T18:03:57.755Z,98789.56
2023-03-31T18:06:27.126Z,98795.78
2023-03-31T18:08:58.729Z,98798.34
2023-03-31T18:11:28.288Z,98791.28
2023-03-31T18:13:57.340Z,98758.50
2023-03-31T18:16:26.428Z,98781.75
2023-03-31T18:18:55.857Z,98788.16
2023-03-31T18:21:25.019Z,98783.09
2023-03-31T18:23:55.133Z,98787.69
2023-03-31T18:26:27.860Z,98788.75
2023-03-31T18:28:56.678Z,98789.75
2023-03-31T18:31:26.936Z,98796.88
2023-03-31T18:33:56.036Z,98758.38
2023-03-31T18:36:25.217Z,98802.97
2023-03-31T18:38:54.676Z,98796.63
2023-03-31T18:41:25.474Z,98801.97
2023-03-31T18:43:54.554Z,98803.84
2023-03-31T18:46:23.386Z,98802.31
2023-03-31T18:48:52.397Z,98814.88
2023-03-31T18:51:21.026Z,98816.13
2023-03-31T18:53:49.822Z,98817.22
2023-03-31T18:56:18.771Z,98816.50
2023-03-31T18:58:48.723Z,98817.66
2023-03-31T19:01:17.282Z,98823.00
2023-03-31T19:03:46.396Z,98820.50
2023-03-31T19:06:17.666Z,98818.78
2023-03-31T19:08:46.350Z,98749.44
2023-03-31T19:11:17.761Z,98762.03
2023-03-31T19:13:48.158Z,98818.00
2023-03-31T19:16:17.836Z,98806.63
2023-03-31T19:18:46.912Z,98807.34
2023-03-31T19:21:15.675Z,98820.31
2023-03-31T19:23:44.462Z,98817.50
2023-03-31T19:26:18.135Z,98578.13
2023-03-31T19:28:49.151Z,98816.63
2023-03-31T19:31:18.137Z,98806.47
2023-03-31T19:33:48.818Z,98811.16
2023-03-31T19:36:18.613Z,98814.19
2023-03-31T19:38:47.360Z,98809.22
2023-03-31T19:41:18.209Z,98804.19
2023-03-31T19:43:49.055Z,98800.16
2023-03-31T19:46:17.983Z,98808.38
2023-03-31T19:48:46.827Z,98815.53
2023-03-31T19:51:15.688Z,98806.38
2023-03-31T19:53:44.467Z,98808.41
2023-03-31T19:56:15.898Z,98800.94
2023-03-31T19:58:45.502Z,98821.59
2023-03-31T20:01:20.773Z,98821.88
2023-03-31T20:03:52.721Z,98816.84
2023-03-31T20:06:24.887Z,98823.34
2023-03-31T20:08:55.336Z,98818.53
2023-03-31T20:11:26.163Z,98812.88
2023-03-31T20:13:56.188Z,98821.38
2023-03-31T20:16:29.312Z,98815.88
2023-03-31T20:19:01.346Z,98791.63
2023-03-31T20:21:33.224Z,98776.66
2023-03-31T20:24:02.055Z,98819.47
2023-03-31T20:26:32.590Z,98808.91
2023-03-31T20:29:03.483Z,98818.06
2023-03-31T20:31:36.711Z,98811.81
2023-03-31T20:34:06.763Z,98817.72
2023-03-31T20:36:35.725Z,98815.81
2023-03-31T20:39:06.176Z,98820.03
2023-03-31T20:41:37.851Z,98818.19
2023-03-31T20:44:12.041Z,98825.03
2023-03-31T20:46:48.054Z,98828.41
2023-03-31T20:49:18.830Z,98820.41
2023-03-31T20:51:50.102Z,98821.97
2023-03-31T20:54:19.130Z,98815.63
2023-03-31T20:56:48.000Z,98819.94
2023-03-31T20:59:17.144Z,98820.78
2023-03-31T21:01:49.548Z,98822.63
2023-03-31T21:04:18.545Z,98814.72
2023-03-31T21:06:49.058Z,98773.50
2023-03-31T21:09:18.599Z,98553.53
2023-03-31T21:11:47.411Z,98816.50
2023-03-31T21:14:17.554Z,98795.06
2023-03-31T21:16:47.408Z,98825.41
2023-03-31T21:19:16.267Z,98825.53
2023-03-31T21:21:45.091Z,98827.25
2023-03-31T21:24:14.499Z,98824.59
2023-03-31T21:26:43.375Z,98820.97
2023-03-31T21:29:12.297Z,98822.69
2023-03-31T21:31:41.633Z,98827.06
2023-03-31T21:34:11.831Z,98818.28
2023-03-31T21:36:40.636Z,98827.91
2023-03-31T21:39:09.810Z,98826.06
2023-03-31T21:41:39.946Z,98829.53
2023-03-31T21:44:09.955Z,98824.19
2023-03-31T21:46:39.185Z,98825.22
2023-03-31T21:49:08.191Z,98831.25
2023-03-31T21:51:38.598Z,98834.75
2023-03-31T21:54:07.568Z,98835.56
2023-03-31T21:56:36.888Z,98839.06
2023-03-31T21:59:06.261Z,98837.28
2023-03-31T22:01:35.012Z,98831.19
2023-03-31T22:04:03.865Z,98839.19
2023-03-31T22:06:34.516Z,98830.41
2023-03-31T22:09:04.783Z,98826.13
2023-03-31T22:11:33.578Z,98833.19
2023-03-31T22:14:02.655Z,98833.13
2023-03-31T22:16:31.619Z,98830.50
2023-03-31T22:19:00.496Z,98833.03
2023-03-31T22:21:43.569Z,98834.06
2023-03-31T22:24:14.560Z,98832.34
2023-03-31T22:26:43.004Z,98829.69
2023-03-31T22:29:15.926Z,98792.06
2023-03-31T22:31:44.476Z,98837.63
2023-03-31T22:34:12.954Z,98717.34
2023-03-31T22:36:42.854Z,98826.34
2023-03-31T22:39:11.342Z,98827.41
2023-03-31T22:41:41.996Z,98706.56
2023-03-31T22:44:11.498Z,98825.69
2023-03-31T22:46:40.527Z,98787.31
2023-03-31T22:49:09.879Z,98831.16
2023-03-31T22:51:40.555Z,98829.53
2023-03-31T22:54:13.733Z,98732.03
2023-03-31T22:56:45.536Z,98832.31
2023-03-31T22:59:14.043Z,98836.78
2023-03-31T23:01:42.635Z,98791.44
2023-03-31T23:04:11.655Z,98837.72
2023-03-31T23:06:40.513Z,98835.06
2023-03-31T23:09:08.962Z,98836.00
2023-03-31T23:11:37.505Z,98834.44
2023-03-31T23:14:07.357Z,98832.72
2023-03-31T23:16:37.884Z,98699.28
2023-03-31T23:19:06.976Z,98830.19
2023-03-31T23:21:36.259Z,98840.63
2023-03-31T23:24:06.171Z,98833.56
2023-03-31T23:26:36.027Z,98789.91
2023-03-31T23:29:06.732Z,98834.44
2023-03-31T23:31:35.275Z,98839.66
2023-03-31T23:34:03.918Z,98837.81
2023-03-31T23:36:32.456Z,98829.72
2023-03-31T23:39:00.926Z,98793.94
2023-03-31T23:41:29.940Z,98833.16
2023-03-31T23:43:58.965Z,98834.72
2023-03-31T23:46:29.795Z,98822.47
2023-03-31T23:48:58.507Z,98832.75
2023-03-31T23:51:27.019Z,98834.31
2023-03-31T23:53:55.810Z,98827.84
2023-03-31T23:56:25.384Z,98823.34
2023-03-31T23:58:53.854Z,98795.22
